• Join FlightAware (Why Join?)
  • Login
  • US Flag 
Gobble Gobble! 
04:09PM EST


 

Airport Tracker/Info


-or-


 

Live Flight TrackerFlight Track Log ✈ N741FX ✈ 28-Jun-2013 ✈ KMAF - KABI

Flight Track Log - Related Links

Times and Time Zones

All times are in EDT time to prevent confusion due to time zone crossing. See the N741FX flight status page for this flight to view local times or setup timezone preferences in your user account.

Time Position Orientation Groundspeed Altitude Reporting Facility
EDT Latitude Longitude Course Direction KTS MPH feet Rate Location/Type
07:48AM 31.9785 -101.9909 77° East  Level FlightAware Approximate
07:49AM 31.9833 -101.9484 90° East  Level FlightAware Approximate
07:50AM 31.9855 -101.9055 77° East  Level FlightAware Approximate
07:51AM 31.9937 -101.8634 77° East  Level FlightAware Approximate
07:52AM 32.0018 -101.8213 77° East  Level FlightAware Approximate
07:52AM 32.0719 -101.7967 77° East 149 171 8,900  Level Fort Worth Center
07:53AM 32.0099 -101.7792 77° East  Level FlightAware Approximate
07:53AM 32.0819 -101.7556 74° East 156 180 8,900  Level Fort Worth Center
07:54AM 32.0181 -101.7371 77° East  Level FlightAware Approximate
07:54AM 32.0897 -101.7069 79° East 151 174 8,900  Level Fort Worth Center
07:55AM 32.0262 -101.6949 77° East  Level FlightAware Approximate
07:55AM 32.0975 -101.6606 79° East 146 168 8,900  Level Fort Worth Center
07:56AM 32.0343 -101.6528 77° East  Level FlightAware Approximate
07:56AM 32.1056 -101.6144 78° East 141 162 8,900  Level Fort Worth Center
07:57AM 32.0424 -101.6106 77° East  Level FlightAware Approximate
07:57AM 32.1153 -101.5658 77° East 141 162 8,900  Level Fort Worth Center
07:58AM 32.1211 -101.5194 82° East 141 162 8,900 -120 Level Fort Worth Center
08:04AM 32.1690 -101.2240 82° East 150 173 -120 Descending FlightAware
08:05AM 32.1740 -101.1970 78° East 151 174 240 Level FlightAware
08:05AM 32.1770 -101.1790 79° East 151 174 240 Level FlightAware
08:06AM 32.1830 -101.1430 79° East 152 175 240 Level FlightAware
08:07AM 32.1860 -101.1190 82° East 149 171 300 Level FlightAware
08:07AM 32.1910 -101.0930 77° East 150 173 300 Level FlightAware
08:07AM 32.1940 -101.0720 80° East 151 174 300 Level FlightAware
08:08AM 32.1960 -101.0630 75° East 151 174 300 Level FlightAware
08:08AM 32.1990 -101.0410 81° East 150 173 300 Level FlightAware
08:09AM 32.2050 -101.0030 79° East 151 174 300 Level FlightAware
08:09AM 32.2080 -100.9820 80° East 151 174 300 Level FlightAware
08:10AM 32.2140 -100.9500 77° East 150 173 360 Level FlightAware
08:10AM 32.2180 -100.9290 77° East 150 173 360 Level FlightAware
08:11AM 32.2220 -100.9040 79° East 150 173 360 Level FlightAware
08:12AM 32.2300 -100.8510 80° East 150 173 360 Level FlightAware
08:12AM 32.2330 -100.8330 79° East 150 173 420 Level FlightAware
08:19AM 32.2840 -100.5140 79° East 150 173 420 Level FlightAware
08:23AM 32.3120 -100.3320 80° East 166 191 840 Level FlightAware
08:23AM 32.3160 -100.3040 80° East 166 191 1,680 Level FlightAware
08:24AM 32.3230 -100.2560 80° East 167 192 2,040 Level FlightAware
08:25AM 32.3290 -100.2180 79° East 171 197 2,760 Level FlightAware
08:25AM 32.3320 -100.1940 82° East 171 197 4,020 Level FlightAware
08:26AM 32.3403 -100.1428 82° East 162 186 6,200 2,820 Climbing Fort Worth Center
08:27AM 32.3478 -100.0864 81° East 162 186 5,700 -540 Descending Fort Worth Center
08:28AM 32.3572 -100.0253 80° East 167 192 5,200 -360 Descending Fort Worth Center
08:29AM 32.3669 -99.9689 78° East 172 198 5,000 -240 Descending Fort Worth Center
08:31AM 32.3685 -99.9060 79° East  Level FlightAware Approximate
08:38AM 32.4113 -99.6819 90° East  Level Estimated
08:39AM 32.4113 -99.6819 90° East  Level Estimated
08:40AM 32.4113 -99.6819 90° East  Level Estimated
08:41AM 32.4113 -99.6819 90° East  Level Estimated
08:42AM 32.4113 -99.6819 90° East  Level Estimated
08:43AM 32.4113 -99.6819 90° East  Level Estimated
08:44AM 32.4113 -99.6819 90° East  Level Estimated